sensor_id;sensor_type;location;lat;lon;timestamp;temperature;humidity
55329;DHT22;41205;44.264;19.884;2023-02-11T00:00:13;39.00;2201.60
55329;DHT22;41205;44.264;19.884;2023-02-11T00:02:40;39.30;2201.60
55329;DHT22;41205;44.264;19.884;2023-02-11T00:05:05;64.10;2201.60
55329;DHT22;41205;44.264;19.884;2023-02-11T00:07:32;64.00;2201.60
55329;DHT22;41205;44.264;19.884;2023-02-11T00:09:58;39.20;2201.60
55329;DHT22;41205;44.264;19.884;2023-02-11T00:12:24;39.00;2201.60
55329;DHT22;41205;44.264;19.884;2023-02-11T00:14:50;39.00;2201.60
55329;DHT22;41205;44.264;19.884;2023-02-11T00:17:16;39.20;2201.60
55329;DHT22;41205;44.264;19.884;2023-02-11T00:19:41;39.10;2201.60
55329;DHT22;41205;44.264;19.884;2023-02-11T00:22:07;38.90;2201.60
55329;DHT22;41205;44.264;19.884;2023-02-11T00:24:35;38.70;2201.60
55329;DHT22;41205;44.264;19.884;2023-02-11T00:27:01;38.90;2201.60
55329;DHT22;41205;44.264;19.884;2023-02-11T00:29:27;38.70;2201.60
55329;DHT22;41205;44.264;19.884;2023-02-11T00:31:53;38.60;2201.60
55329;DHT22;41205;44.264;19.884;2023-02-11T00:34:18;38.70;2201.60
55329;DHT22;41205;44.264;19.884;2023-02-11T00:36:44;38.60;2201.60
55329;DHT22;41205;44.264;19.884;2023-02-11T00:39:10;38.50;2201.60
55329;DHT22;41205;44.264;19.884;2023-02-11T00:41:35;38.50;2201.60
55329;DHT22;41205;44.264;19.884;2023-02-11T00:44:01;38.80;2201.60
55329;DHT22;41205;44.264;19.884;2023-02-11T00:46:27;38.70;2201.60
55329;DHT22;41205;44.264;19.884;2023-02-11T00:48:53;38.60;2201.60
55329;DHT22;41205;44.264;19.884;2023-02-11T00:51:23;38.60;2201.60
55329;DHT22;41205;44.264;19.884;2023-02-11T00:53:49;38.60;2201.60
55329;DHT22;41205;44.264;19.884;2023-02-11T00:56:15;38.50;2201.60
55329;DHT22;41205;44.264;19.884;2023-02-11T00:58:40;38.50;2201.60
55329;DHT22;41205;44.264;19.884;2023-02-11T01:01:06;38.50;2201.60
55329;DHT22;41205;44.264;19.884;2023-02-11T01:03:33;38.50;2201.60
55329;DHT22;41205;44.264;19.884;2023-02-11T01:05:58;38.50;2201.60
55329;DHT22;41205;44.264;19.884;2023-02-11T01:08:24;38.60;2201.60
55329;DHT22;41205;44.264;19.884;2023-02-11T01:10:55;38.50;2201.60
55329;DHT22;41205;44.264;19.884;2023-02-11T01:13:21;38.50;2201.60
55329;DHT22;41205;44.264;19.884;2023-02-11T01:15:47;38.60;2201.60
55329;DHT22;41205;44.264;19.884;2023-02-11T01:18:13;38.70;2201.60
55329;DHT22;41205;44.264;19.884;2023-02-11T01:20:38;38.70;2201.60
55329;DHT22;41205;44.264;19.884;2023-02-11T01:23:04;39.00;2201.60
55329;DHT22;41205;44.264;19.884;2023-02-11T01:25:29;38.90;2201.60
55329;DHT22;41205;44.264;19.884;2023-02-11T01:27:55;38.90;2201.60
55329;DHT22;41205;44.264;19.884;2023-02-11T01:30:21;39.00;2201.60
55329;DHT22;41205;44.264;19.884;2023-02-11T01:32:47;38.90;2201.60
55329;DHT22;41205;44.264;19.884;2023-02-11T01:35:12;38.90;2201.60
55329;DHT22;41205;44.264;19.884;2023-02-11T01:37:38;39.00;2201.60
55329;DHT22;41205;44.264;19.884;2023-02-11T01:40:09;39.00;2201.60
55329;DHT22;41205;44.264;19.884;2023-02-11T01:42:35;39.10;2201.60
55329;DHT22;41205;44.264;19.884;2023-02-11T01:48:05;39.10;2201.60
55329;DHT22;41205;44.264;19.884;2023-02-11T01:50:32;39.20;2201.60
55329;DHT22;41205;44.264;19.884;2023-02-11T01:52:59;39.20;2201.60
55329;DHT22;41205;44.264;19.884;2023-02-11T01:55:45;39.20;2201.60
55329;DHT22;41205;44.264;19.884;2023-02-11T01:58:31;39.10;2201.60
55329;DHT22;41205;44.264;19.884;2023-02-11T02:01:01;39.20;2201.60
55329;DHT22;41205;44.264;19.884;2023-02-11T02:03:30;64.10;2201.60
55329;DHT22;41205;44.264;19.884;2023-02-11T02:06:17;64.20;2201.60
55329;DHT22;41205;44.264;19.884;2023-02-11T02:09:04;64.10;2201.60
55329;DHT22;41205;44.264;19.884;2023-02-11T02:11:31;64.10;2201.60
55329;DHT22;41205;44.264;19.884;2023-02-11T02:13:57;64.10;2201.60
55329;DHT22;41205;44.264;19.884;2023-02-11T02:16:29;64.10;2201.60
55329;DHT22;41205;44.264;19.884;2023-02-11T02:22:25;39.20;2201.60
55329;DHT22;41205;44.264;19.884;2023-02-11T02:36:30;39.10;2201.60
55329;DHT22;41205;44.264;19.884;2023-02-11T02:39:05;39.00;2201.60
55329;DHT22;41205;44.264;19.884;2023-02-11T02:41:33;39.00;2201.60
55329;DHT22;41205;44.264;19.884;2023-02-11T02:44:00;39.10;2201.60
55329;DHT22;41205;44.264;19.884;2023-02-11T02:46:28;39.10;2201.60
55329;DHT22;41205;44.264;19.884;2023-02-11T02:48:55;39.10;2201.60
55329;DHT22;41205;44.264;19.884;2023-02-11T03:08:15;64.00;2201.60
55329;DHT22;41205;44.264;19.884;2023-02-11T03:10:49;64.00;2201.60
55329;DHT22;41205;44.264;19.884;2023-02-11T03:13:17;39.30;2201.60
55329;DHT22;41205;44.264;19.884;2023-02-11T03:15:46;64.00;2201.60
55329;DHT22;41205;44.264;19.884;2023-02-11T03:18:16;64.00;2201.60
55329;DHT22;41205;44.264;19.884;2023-02-11T03:20:46;64.00;2201.60
55329;DHT22;41205;44.264;19.884;2023-02-11T03:23:22;39.30;2201.60
55329;DHT22;41205;44.264;19.884;2023-02-11T03:25:55;39.20;2201.60
55329;DHT22;41205;44.264;19.884;2023-02-11T03:28:36;39.30;2201.60
55329;DHT22;41205;44.264;19.884;2023-02-11T03:31:29;64.00;2201.60
55329;DHT22;41205;44.264;19.884;2023-02-11T03:34:05;64.00;2201.60
55329;DHT22;41205;44.264;19.884;2023-02-11T03:36:56;64.00;2201.60
55329;DHT22;41205;44.264;19.884;2023-02-11T03:39:32;64.00;2201.60
55329;DHT22;41205;44.264;19.884;2023-02-11T03:41:59;64.10;2201.60
55329;DHT22;41205;44.264;19.884;2023-02-11T03:44:32;64.30;2201.60
55329;DHT22;41205;44.264;19.884;2023-02-11T03:47:00;64.50;2201.60
55329;DHT22;41205;44.264;19.884;2023-02-11T03:49:28;64.40;2201.60
55329;DHT22;41205;44.264;19.884;2023-02-11T03:51:55;64.40;2201.60
55329;DHT22;41205;44.264;19.884;2023-02-11T03:54:27;64.20;2201.60
55329;DHT22;41205;44.264;19.884;2023-02-11T03:56:56;64.20;2201.60
55329;DHT22;41205;44.264;19.884;2023-02-11T03:59:22;64.20;2201.60
55329;DHT22;41205;44.264;19.884;2023-02-11T04:01:47;64.30;2201.60
55329;DHT22;41205;44.264;19.884;2023-02-11T04:04:13;64.20;2201.60
55329;DHT22;41205;44.264;19.884;2023-02-11T04:06:39;64.20;2201.60
55329;DHT22;41205;44.264;19.884;2023-02-11T04:09:05;64.30;2201.60
55329;DHT22;41205;44.264;19.884;2023-02-11T04:11:31;64.30;2201.60
55329;DHT22;41205;44.264;19.884;2023-02-11T04:13:57;64.30;2201.60
55329;DHT22;41205;44.264;19.884;2023-02-11T04:16:23;64.30;2201.60
55329;DHT22;41205;44.264;19.884;2023-02-11T04:18:48;64.20;2201.60
55329;DHT22;41205;44.264;19.884;2023-02-11T04:21:14;64.30;2201.60
55329;DHT22;41205;44.264;19.884;2023-02-11T04:23:40;64.20;2201.60
55329;DHT22;41205;44.264;19.884;2023-02-11T04:26:06;64.50;2201.60
55329;DHT22;41205;44.264;19.884;2023-02-11T04:28:31;64.60;2201.60
55329;DHT22;41205;44.264;19.884;2023-02-11T04:30:57;64.40;2201.60
55329;DHT22;41205;44.264;19.884;2023-02-11T04:33:23;64.30;2201.60
55329;DHT22;41205;44.264;19.884;2023-02-11T04:35:49;64.40;2201.60
55329;DHT22;41205;44.264;19.884;2023-02-11T04:38:15;64.40;2201.60
55329;DHT22;41205;44.264;19.884;2023-02-11T04:40:41;64.60;2201.60
55329;DHT22;41205;44.264;19.884;2023-02-11T04:43:07;64.60;2201.60
55329;DHT22;41205;44.264;19.884;2023-02-11T04:45:32;64.60;2201.60
55329;DHT22;41205;44.264;19.884;2023-02-11T04:47:58;64.50;2201.60
55329;DHT22;41205;44.264;19.884;2023-02-11T04:50:25;64.80;2201.60
55329;DHT22;41205;44.264;19.884;2023-02-11T04:52:51;64.80;2201.60
55329;DHT22;41205;44.264;19.884;2023-02-11T04:55:17;64.80;2201.60
55329;DHT22;41205;44.264;19.884;2023-02-11T04:57:42;89.60;2201.60
55329;DHT22;41205;44.264;19.884;2023-02-11T05:00:08;64.90;2201.60
55329;DHT22;41205;44.264;19.884;2023-02-11T05:02:35;64.90;2201.60
55329;DHT22;41205;44.264;19.884;2023-02-11T05:05:00;64.70;2201.60
55329;DHT22;41205;44.264;19.884;2023-02-11T05:07:26;64.80;2201.60
55329;DHT22;41205;44.264;19.884;2023-02-11T05:09:52;64.90;2201.60
55329;DHT22;41205;44.264;19.884;2023-02-11T05:12:18;89.60;2201.60
55329;DHT22;41205;44.264;19.884;2023-02-11T05:14:44;89.60;2201.60
55329;DHT22;41205;44.264;19.884;2023-02-11T05:17:09;64.90;2201.60
55329;DHT22;41205;44.264;19.884;2023-02-11T05:19:35;89.70;2176.00
55329;DHT22;41205;44.264;19.884;2023-02-11T05:22:01;89.60;2201.60
55329;DHT22;41205;44.264;19.884;2023-02-11T05:24:26;89.60;2201.60
55329;DHT22;41205;44.264;19.884;2023-02-11T05:26:52;89.70;2176.00
55329;DHT22;41205;44.264;19.884;2023-02-11T05:29:18;89.80;2176.00
55329;DHT22;41205;44.264;19.884;2023-02-11T05:31:44;89.60;2201.60
55329;DHT22;41205;44.264;19.884;2023-02-11T05:34:10;64.90;2201.60
55329;DHT22;41205;44.264;19.884;2023-02-11T05:36:36;64.90;2201.60
55329;DHT22;41205;44.264;19.884;2023-02-11T05:39:02;89.60;2201.60
55329;DHT22;41205;44.264;19.884;2023-02-11T05:41:27;64.90;2201.60
55329;DHT22;41205;44.264;19.884;2023-02-11T05:43:53;89.60;2201.60
55329;DHT22;41205;44.264;19.884;2023-02-11T05:46:19;89.60;2201.60
55329;DHT22;41205;44.264;19.884;2023-02-11T05:48:44;89.60;2201.60
55329;DHT22;41205;44.264;19.884;2023-02-11T05:51:10;64.90;2201.60
55329;DHT22;41205;44.264;19.884;2023-02-11T05:53:36;89.60;2201.60
55329;DHT22;41205;44.264;19.884;2023-02-11T05:56:02;89.70;2176.00
55329;DHT22;41205;44.264;19.884;2023-02-11T05:58:27;90.10;2176.00
55329;DHT22;41205;44.264;19.884;2023-02-11T06:00:53;90.20;2176.00
55329;DHT22;41205;44.264;19.884;2023-02-11T06:03:19;90.10;2176.00
55329;DHT22;41205;44.264;19.884;2023-02-11T06:05:45;89.80;2176.00
55329;DHT22;41205;44.264;19.884;2023-02-11T06:08:11;89.60;2201.60
55329;DHT22;41205;44.264;19.884;2023-02-11T06:10:37;64.80;2201.60
55329;DHT22;41205;44.264;19.884;2023-02-11T06:13:03;64.80;2201.60
55329;DHT22;41205;44.264;19.884;2023-02-11T06:15:29;64.80;2201.60
55329;DHT22;41205;44.264;19.884;2023-02-11T06:17:55;64.80;2201.60
55329;DHT22;41205;44.264;19.884;2023-02-11T06:20:21;64.70;2201.60
55329;DHT22;41205;44.264;19.884;2023-02-11T06:22:47;64.60;2201.60
55329;DHT22;41205;44.264;19.884;2023-02-11T06:25:13;64.20;2201.60
55329;DHT22;41205;44.264;19.884;2023-02-11T06:27:39;64.50;2201.60
55329;DHT22;41205;44.264;19.884;2023-02-11T06:30:06;64.40;2201.60
55329;DHT22;41205;44.264;19.884;2023-02-11T06:32:32;64.40;2201.60
55329;DHT22;41205;44.264;19.884;2023-02-11T06:34:58;64.20;2201.60
55329;DHT22;41205;44.264;19.884;2023-02-11T06:37:24;64.10;2201.60
55329;DHT22;41205;44.264;19.884;2023-02-11T06:39:50;64.10;2201.60
55329;DHT22;41205;44.264;19.884;2023-02-11T06:42:16;39.30;2201.60
55329;DHT22;41205;44.264;19.884;2023-02-11T06:44:41;39.20;2201.60
55329;DHT22;41205;44.264;19.884;2023-02-11T06:47:07;39.10;2201.60
55329;DHT22;41205;44.264;19.884;2023-02-11T06:49:33;38.90;2201.60
55329;DHT22;41205;44.264;19.884;2023-02-11T06:51:58;38.80;2201.60
55329;DHT22;41205;44.264;19.884;2023-02-11T06:54:24;38.80;2201.60
55329;DHT22;41205;44.264;19.884;2023-02-11T06:56:50;38.60;2201.60
55329;DHT22;41205;44.264;19.884;2023-02-11T06:59:17;38.60;2201.60
55329;DHT22;41205;44.264;19.884;2023-02-11T07:01:43;38.70;2201.60
55329;DHT22;41205;44.264;19.884;2023-02-11T07:04:09;38.70;2201.60
55329;DHT22;41205;44.264;19.884;2023-02-11T07:06:35;38.50;2201.60
55329;DHT22;41205;44.264;19.884;2023-02-11T07:09:03;38.40;2201.60
55329;DHT22;41205;44.264;19.884;2023-02-11T07:11:30;13.70;2201.60
55329;DHT22;41205;44.264;19.884;2023-02-11T07:14:00;38.40;2201.60
55329;DHT22;41205;44.264;19.884;2023-02-11T07:16:26;13.60;2201.60
55329;DHT22;41205;44.264;19.884;2023-02-11T07:18:51;13.40;2201.60
55329;DHT22;41205;44.264;19.884;2023-02-11T07:21:20;13.20;2201.60
55329;DHT22;41205;44.264;19.884;2023-02-11T07:23:46;13.30;2201.60
55329;DHT22;41205;44.264;19.884;2023-02-11T07:26:15;13.60;2201.60
55329;DHT22;41205;44.264;19.884;2023-02-11T07:28:41;13.60;2201.60
55329;DHT22;41205;44.264;19.884;2023-02-11T07:31:13;13.40;2201.60
55329;DHT22;41205;44.264;19.884;2023-02-11T07:33:39;13.20;2201.60
55329;DHT22;41205;44.264;19.884;2023-02-11T07:36:07;13.10;2201.60
55329;DHT22;41205;44.264;19.884;2023-02-11T07:38:35;13.00;2201.60
55329;DHT22;41205;44.264;19.884;2023-02-11T07:41:04;12.90;2201.60
55329;DHT22;41205;44.264;19.884;2023-02-11T07:43:31;12.90;2201.60
55329;DHT22;41205;44.264;19.884;2023-02-11T07:45:57;13.00;2201.60
55329;DHT22;41205;44.264;19.884;2023-02-11T07:48:22;0.00;2201.60
55329;DHT22;41205;44.264;19.884;2023-02-11T07:50:48;0.50;2201.60
55329;DHT22;41205;44.264;19.884;2023-02-11T07:53:15;51.20;2227.20
55329;DHT22;41205;44.264;19.884;2023-02-11T07:55:42;102.50;2227.20
55329;DHT22;41205;44.264;19.884;2023-02-11T07:58:08;153.60;2150.40
55329;DHT22;41205;44.264;19.884;2023-02-11T08:00:33;179.20;2022.40
55329;DHT22;41205;44.264;19.884;2023-02-11T08:02:59;179.50;1971.20
55329;DHT22;41205;44.264;19.884;2023-02-11T08:05:25;179.60;1971.20
55329;DHT22;41205;44.264;19.884;2023-02-11T08:07:52;204.90;1894.40
55329;DHT22;41205;44.264;19.884;2023-02-11T08:10:18;205.40;1868.80
55329;DHT22;41205;44.264;19.884;2023-02-11T08:12:44;230.90;1792.00
55329;DHT22;41205;44.264;19.884;2023-02-11T08:15:09;281.60;1715.20
55329;DHT22;41205;44.264;19.884;2023-02-11T08:17:36;231.30;1689.60
55329;DHT22;41205;44.264;19.884;2023-02-11T08:20:03;281.90;1638.40
55329;DHT22;41205;44.264;19.884;2023-02-11T08:22:33;281.90;1612.80
55329;DHT22;41205;44.264;19.884;2023-02-11T08:24:59;308.10;1536.00
55329;DHT22;41205;44.264;19.884;2023-02-11T08:27:25;358.80;1484.80
55329;DHT22;41205;44.264;19.884;2023-02-11T08:29:54;384.60;1408.00
55329;DHT22;41205;44.264;19.884;2023-02-11T08:32:21;358.50;1459.20
55329;DHT22;41205;44.264;19.884;2023-02-11T08:34:50;359.20;1408.00
55329;DHT22;41205;44.264;19.884;2023-02-11T08:37:17;358.50;1459.20
55329;DHT22;41205;44.264;19.884;2023-02-11T08:39:43;358.70;1433.60
55329;DHT22;41205;44.264;19.884;2023-02-11T08:42:09;384.70;1382.40
55329;DHT22;41205;44.264;19.884;2023-02-11T08:44:35;409.90;1356.80
55329;DHT22;41205;44.264;19.884;2023-02-11T08:47:00;384.70;1331.20
55329;DHT22;41205;44.264;19.884;2023-02-11T08:49:26;410.10;1331.20
55329;DHT22;41205;44.264;19.884;2023-02-11T08:51:52;409.60;1331.20
55329;DHT22;41205;44.264;19.884;2023-02-11T08:54:19;435.30;1305.60
55329;DHT22;41205;44.264;19.884;2023-02-11T08:56:44;436.00;1254.40
55329;DHT22;41205;44.264;19.884;2023-02-11T08:59:12;435.30;1280.00
55329;DHT22;41205;44.264;19.884;2023-02-11T09:01:39;435.60;1254.40
55329;DHT22;41205;44.264;19.884;2023-02-11T09:04:04;435.60;1254.40
55329;DHT22;41205;44.264;19.884;2023-02-11T09:06:31;410.50;1280.00
55329;DHT22;41205;44.264;19.884;2023-02-11T09:08:57;410.50;1280.00
55329;DHT22;41205;44.264;19.884;2023-02-11T09:11:28;435.20;1254.40
55329;DHT22;41205;44.264;19.884;2023-02-11T09:13:54;410.00;1280.00
55329;DHT22;41205;44.264;19.884;2023-02-11T09:16:23;409.80;1280.00
55329;DHT22;41205;44.264;19.884;2023-02-11T09:18:49;409.60;1305.60
55329;DHT22;41205;44.264;19.884;2023-02-11T09:21:16;409.80;1280.00
55329;DHT22;41205;44.264;19.884;2023-02-11T09:23:42;410.40;1254.40
55329;DHT22;41205;44.264;19.884;2023-02-11T09:28:46;435.30;1228.80
55329;DHT22;41205;44.264;19.884;2023-02-11T09:31:14;461.20;1228.80
55329;DHT22;41205;44.264;19.884;2023-02-11T09:33:42;460.90;1203.20
55329;DHT22;41205;44.264;19.884;2023-02-11T09:36:16;410.20;1254.40
55329;DHT22;41205;44.264;19.884;2023-02-11T09:38:43;359.10;1305.60
55329;DHT22;41205;44.264;19.884;2023-02-11T09:43:58;359.00;1356.80
55329;DHT22;41205;44.264;19.884;2023-02-11T09:46:26;308.10;1382.40
55329;DHT22;41205;44.264;19.884;2023-02-11T09:48:55;282.40;1433.60
55329;DHT22;41205;44.264;19.884;2023-02-11T09:51:43;281.60;1484.80
55329;DHT22;41205;44.264;19.884;2023-02-11T09:54:22;282.00;1484.80
55329;DHT22;41205;44.264;19.884;2023-02-11T09:56:51;282.30;1484.80
55329;DHT22;41205;44.264;19.884;2023-02-11T09:59:17;256.70;1510.40
55329;DHT22;41205;44.264;19.884;2023-02-11T10:01:54;256.60;1510.40
55329;DHT22;41205;44.264;19.884;2023-02-11T10:06:55;231.30;1561.60
55329;DHT22;41205;44.264;19.884;2023-02-11T10:22:42;205.60;1612.80
55329;DHT22;41205;44.264;19.884;2023-02-11T10:25:36;205.40;1638.40
55329;DHT22;41205;44.264;19.884;2023-02-11T10:28:16;205.60;1612.80
55329;DHT22;41205;44.264;19.884;2023-02-11T10:30:58;205.70;1612.80
55329;DHT22;41205;44.264;19.884;2023-02-11T10:33:51;230.60;1638.40
55329;DHT22;41205;44.264;19.884;2023-02-11T10:36:20;230.40;1612.80
55329;DHT22;41205;44.264;19.884;2023-02-11T10:38:48;205.40;1689.60
55329;DHT22;41205;44.264;19.884;2023-02-11T10:41:20;205.50;1664.00
55329;DHT22;41205;44.264;19.884;2023-02-11T10:43:47;205.40;1612.80
55329;DHT22;41205;44.264;19.884;2023-02-11T10:46:17;179.80;1740.80
55329;DHT22;41205;44.264;19.884;2023-02-11T10:48:47;179.60;1817.60
55329;DHT22;41205;44.264;19.884;2023-02-11T10:51:23;180.00;1817.60
55329;DHT22;41205;44.264;19.884;2023-02-11T10:54:13;180.00;1792.00
55329;DHT22;41205;44.264;19.884;2023-02-11T10:56:46;180.00;1792.00
55329;DHT22;41205;44.264;19.884;2023-02-11T10:59:36;179.80;1792.00
55329;DHT22;41205;44.264;19.884;2023-02-11T11:02:23;180.00;1792.00
55329;DHT22;41205;44.264;19.884;2023-02-11T11:04:55;179.60;1792.00
55329;DHT22;41205;44.264;19.884;2023-02-11T11:07:30;154.50;1868.80
55329;DHT22;41205;44.264;19.884;2023-02-11T11:10:10;154.10;1894.40
55329;DHT22;41205;44.264;19.884;2023-02-11T11:12:49;154.50;1894.40
55329;DHT22;41205;44.264;19.884;2023-02-11T11:15:27;154.30;1894.40
55329;DHT22;41205;44.264;19.884;2023-02-11T11:18:13;154.40;1894.40
55329;DHT22;41205;44.264;19.884;2023-02-11T11:20:59;179.30;1868.80
55329;DHT22;41205;44.264;19.884;2023-02-11T11:23:28;154.10;1894.40
55329;DHT22;41205;44.264;19.884;2023-02-11T11:26:01;154.50;1894.40
55329;DHT22;41205;44.264;19.884;2023-02-11T11:28:29;154.50;1868.80
55329;DHT22;41205;44.264;19.884;2023-02-11T11:30:56;154.40;1868.80
55329;DHT22;41205;44.264;19.884;2023-02-11T11:33:26;153.90;1894.40
55329;DHT22;41205;44.264;19.884;2023-02-11T11:36:10;154.20;1894.40
55329;DHT22;41205;44.264;19.884;2023-02-11T11:38:43;153.90;1894.40
55329;DHT22;41205;44.264;19.884;2023-02-11T11:46:35;154.50;1894.40
55329;DHT22;41205;44.264;19.884;2023-02-11T11:49:34;179.20;1868.80
55329;DHT22;41205;44.264;19.884;2023-02-11T11:54:33;153.90;1894.40
55329;DHT22;41205;44.264;19.884;2023-02-11T11:57:03;154.30;1868.80
55329;DHT22;41205;44.264;19.884;2023-02-11T11:59:31;154.50;1843.20
55329;DHT22;41205;44.264;19.884;2023-02-11T12:05:00;154.40;1843.20
55329;DHT22;41205;44.264;19.884;2023-02-11T12:15:22;154.40;1843.20
55329;DHT22;41205;44.264;19.884;2023-02-11T12:18:02;154.50;1843.20
55329;DHT22;41205;44.264;19.884;2023-02-11T12:26:12;154.50;1843.20
55329;DHT22;41205;44.264;19.884;2023-02-11T12:28:51;179.30;1843.20
55329;DHT22;41205;44.264;19.884;2023-02-11T12:40:57;154.40;1868.80
55329;DHT22;41205;44.264;19.884;2023-02-11T12:43:38;154.20;1894.40
55329;DHT22;41205;44.264;19.884;2023-02-11T12:49:27;154.30;1894.40
55329;DHT22;41205;44.264;19.884;2023-02-11T12:52:16;154.10;1920.00
55329;DHT22;41205;44.264;19.884;2023-02-11T12:54:59;154.40;1894.40
55329;DHT22;41205;44.264;19.884;2023-02-11T12:57:30;154.30;1894.40
55329;DHT22;41205;44.264;19.884;2023-02-11T13:10:52;179.70;1843.20
55329;DHT22;41205;44.264;19.884;2023-02-11T13:13:25;179.50;1843.20
55329;DHT22;41205;44.264;19.884;2023-02-11T13:16:01;179.30;1843.20
55329;DHT22;41205;44.264;19.884;2023-02-11T13:29:12;179.50;1817.60
55329;DHT22;41205;44.264;19.884;2023-02-11T13:31:41;179.50;1843.20
55329;DHT22;41205;44.264;19.884;2023-02-11T13:37:21;179.30;1868.80
55329;DHT22;41205;44.264;19.884;2023-02-11T13:40:02;154.50;1868.80
55329;DHT22;41205;44.264;19.884;2023-02-11T13:42:32;154.50;1894.40
55329;DHT22;41205;44.264;19.884;2023-02-11T13:44:59;179.40;1868.80
55329;DHT22;41205;44.264;19.884;2023-02-11T13:47:32;154.50;1894.40
55329;DHT22;41205;44.264;19.884;2023-02-11T13:50:00;154.50;1894.40
55329;DHT22;41205;44.264;19.884;2023-02-11T13:52:30;154.50;1894.40
55329;DHT22;41205;44.264;19.884;2023-02-11T13:55:20;154.50;1894.40
55329;DHT22;41205;44.264;19.884;2023-02-11T14:06:27;154.50;1894.40
55329;DHT22;41205;44.264;19.884;2023-02-11T14:09:35;154.40;1920.00
55329;DHT22;41205;44.264;19.884;2023-02-11T14:12:36;154.30;1920.00
55329;DHT22;41205;44.264;19.884;2023-02-11T14:17:33;154.40;1920.00
55329;DHT22;41205;44.264;19.884;2023-02-11T14:20:02;154.50;1920.00
55329;DHT22;41205;44.264;19.884;2023-02-11T14:22:48;154.50;1920.00
55329;DHT22;41205;44.264;19.884;2023-02-11T14:25:23;154.50;1945.60
55329;DHT22;41205;44.264;19.884;2023-02-11T14:28:19;154.30;1971.20
55329;DHT22;41205;44.264;19.884;2023-02-11T14:31:06;154.20;1971.20
55329;DHT22;41205;44.264;19.884;2023-02-11T14:39:17;154.50;1945.60
55329;DHT22;41205;44.264;19.884;2023-02-11T14:41:47;154.30;1945.60
55329;DHT22;41205;44.264;19.884;2023-02-11T14:44:19;154.20;1971.20
55329;DHT22;41205;44.264;19.884;2023-02-11T14:46:48;154.10;1971.20
55329;DHT22;41205;44.264;19.884;2023-02-11T14:49:27;154.20;1971.20
55329;DHT22;41205;44.264;19.884;2023-02-11T14:52:13;154.20;1971.20
55329;DHT22;41205;44.264;19.884;2023-02-11T14:54:42;154.20;1996.80
55329;DHT22;41205;44.264;19.884;2023-02-11T14:57:15;154.30;1971.20
55329;DHT22;41205;44.264;19.884;2023-02-11T15:00:01;154.30;1971.20
55329;DHT22;41205;44.264;19.884;2023-02-11T15:02:36;154.30;1971.20
55329;DHT22;41205;44.264;19.884;2023-02-11T15:07:50;154.20;1971.20
55329;DHT22;41205;44.264;19.884;2023-02-11T15:12:53;154.40;1971.20
55329;DHT22;41205;44.264;19.884;2023-02-11T15:15:19;154.20;1996.80
55329;DHT22;41205;44.264;19.884;2023-02-11T15:17:45;154.20;1996.80
55329;DHT22;41205;44.264;19.884;2023-02-11T15:20:24;154.30;1996.80
55329;DHT22;41205;44.264;19.884;2023-02-11T15:22:56;154.20;1996.80
55329;DHT22;41205;44.264;19.884;2023-02-11T15:25:23;154.10;1996.80
55329;DHT22;41205;44.264;19.884;2023-02-11T15:27:53;154.10;1996.80
55329;DHT22;41205;44.264;19.884;2023-02-11T15:32:51;153.80;2022.40
55329;DHT22;41205;44.264;19.884;2023-02-11T15:35:23;153.80;2022.40
55329;DHT22;41205;44.264;19.884;2023-02-11T15:37:49;153.80;2048.00
55329;DHT22;41205;44.264;19.884;2023-02-11T15:40:17;153.80;2048.00
55329;DHT22;41205;44.264;19.884;2023-02-11T15:42:59;153.60;2073.60
55329;DHT22;41205;44.264;19.884;2023-02-11T15:48:22;128.90;2073.60
55329;DHT22;41205;44.264;19.884;2023-02-11T15:50:57;128.80;2073.60
55329;DHT22;41205;44.264;19.884;2023-02-11T15:53:29;128.60;2099.20
55329;DHT22;41205;44.264;19.884;2023-02-11T15:58:37;128.60;2099.20
55329;DHT22;41205;44.264;19.884;2023-02-11T16:01:04;128.40;2099.20
55329;DHT22;41205;44.264;19.884;2023-02-11T16:03:31;128.40;2124.80
55329;DHT22;41205;44.264;19.884;2023-02-11T16:06:17;128.30;2124.80
55329;DHT22;41205;44.264;19.884;2023-02-11T16:11:30;128.40;2124.80
55329;DHT22;41205;44.264;19.884;2023-02-11T16:13:58;128.30;2124.80
55329;DHT22;41205;44.264;19.884;2023-02-11T16:16:27;128.20;2124.80
55329;DHT22;41205;44.264;19.884;2023-02-11T16:18:56;128.10;2150.40
55329;DHT22;41205;44.264;19.884;2023-02-11T16:21:28;128.10;2150.40
55329;DHT22;41205;44.264;19.884;2023-02-11T16:23:57;128.10;2150.40
55329;DHT22;41205;44.264;19.884;2023-02-11T16:26:38;128.10;2176.00
55329;DHT22;41205;44.264;19.884;2023-02-11T16:29:25;128.20;2176.00
55329;DHT22;41205;44.264;19.884;2023-02-11T16:31:52;128.20;2176.00
55329;DHT22;41205;44.264;19.884;2023-02-11T16:34:21;128.10;2176.00
55329;DHT22;41205;44.264;19.884;2023-02-11T16:36:48;128.10;2176.00
55329;DHT22;41205;44.264;19.884;2023-02-11T16:39:15;128.10;2176.00
55329;DHT22;41205;44.264;19.884;2023-02-11T16:41:41;128.00;2201.60
55329;DHT22;41205;44.264;19.884;2023-02-11T16:44:07;103.30;2201.60
55329;DHT22;41205;44.264;19.884;2023-02-11T16:46:33;103.20;2201.60
55329;DHT22;41205;44.264;19.884;2023-02-11T16:49:14;103.20;2227.20
55329;DHT22;41205;44.264;19.884;2023-02-11T16:51:41;103.00;2227.20
55329;DHT22;41205;44.264;19.884;2023-02-11T16:54:15;102.80;2227.20
55329;DHT22;41205;44.264;19.884;2023-02-11T16:56:41;102.90;2227.20
55329;DHT22;41205;44.264;19.884;2023-02-11T16:59:07;102.80;2227.20
55329;DHT22;41205;44.264;19.884;2023-02-11T17:01:34;102.90;2227.20
55329;DHT22;41205;44.264;19.884;2023-02-11T17:04:00;102.70;2227.20
55329;DHT22;41205;44.264;19.884;2023-02-11T17:06:26;102.50;2227.20
55329;DHT22;41205;44.264;19.884;2023-02-11T17:08:52;102.40;2227.20
55329;DHT22;41205;44.264;19.884;2023-02-11T17:11:18;102.60;2227.20
55329;DHT22;41205;44.264;19.884;2023-02-11T17:13:44;102.60;2227.20
55329;DHT22;41205;44.264;19.884;2023-02-11T17:16:18;102.80;2227.20
55329;DHT22;41205;44.264;19.884;2023-02-11T17:18:45;102.70;2227.20
55329;DHT22;41205;44.264;19.884;2023-02-11T17:21:11;102.50;2227.20
55329;DHT22;41205;44.264;19.884;2023-02-11T17:23:37;102.40;2227.20
55329;DHT22;41205;44.264;19.884;2023-02-11T17:26:03;102.50;2227.20